sensor_id;sensor_type;location;lat;lon;timestamp;temperature;humidity
11474;DHT22;5793;52.238;13.438;2024-03-06T00:01:17;-1.60;99.90
11474;DHT22;5793;52.238;13.438;2024-03-06T00:03:45;-1.60;99.90
11474;DHT22;5793;52.238;13.438;2024-03-06T00:06:14;-1.60;99.90
11474;DHT22;5793;52.238;13.438;2024-03-06T00:08:42;-1.60;99.90
11474;DHT22;5793;52.238;13.438;2024-03-06T00:11:09;-1.60;99.90
11474;DHT22;5793;52.238;13.438;2024-03-06T00:13:37;-1.60;99.90
11474;DHT22;5793;52.238;13.438;2024-03-06T00:16:05;-1.70;99.90
11474;DHT22;5793;52.238;13.438;2024-03-06T00:18:33;-1.70;99.90
11474;DHT22;5793;52.238;13.438;2024-03-06T00:21:01;-1.70;99.90
11474;DHT22;5793;52.238;13.438;2024-03-06T00:23:30;-1.60;99.90
11474;DHT22;5793;52.238;13.438;2024-03-06T00:25:58;-1.60;99.90
11474;DHT22;5793;52.238;13.438;2024-03-06T00:28:26;-1.50;99.90
11474;DHT22;5793;52.238;13.438;2024-03-06T00:30:55;-1.60;99.90
11474;DHT22;5793;52.238;13.438;2024-03-06T00:33:23;-1.60;99.90
11474;DHT22;5793;52.238;13.438;2024-03-06T00:35:51;-1.70;99.90
11474;DHT22;5793;52.238;13.438;2024-03-06T00:38:19;-1.60;99.90
11474;DHT22;5793;52.238;13.438;2024-03-06T00:40:48;-1.70;99.90
11474;DHT22;5793;52.238;13.438;2024-03-06T00:43:15;-1.70;99.90
11474;DHT22;5793;52.238;13.438;2024-03-06T00:45:43;-1.80;99.90
11474;DHT22;5793;52.238;13.438;2024-03-06T00:48:11;-1.80;99.90
11474;DHT22;5793;52.238;13.438;2024-03-06T00:50:39;-1.90;99.90
11474;DHT22;5793;52.238;13.438;2024-03-06T00:53:07;-2.00;99.90
11474;DHT22;5793;52.238;13.438;2024-03-06T00:55:35;-2.00;99.90
11474;DHT22;5793;52.238;13.438;2024-03-06T00:58:05;-2.00;99.90
11474;DHT22;5793;52.238;13.438;2024-03-06T01:00:34;-2.00;99.90
11474;DHT22;5793;52.238;13.438;2024-03-06T01:03:01;-2.00;99.90
11474;DHT22;5793;52.238;13.438;2024-03-06T01:05:29;-2.00;99.90
11474;DHT22;5793;52.238;13.438;2024-03-06T01:07:57;-2.10;99.90
11474;DHT22;5793;52.238;13.438;2024-03-06T01:10:25;-2.10;99.90
11474;DHT22;5793;52.238;13.438;2024-03-06T01:12:53;-2.10;99.90
11474;DHT22;5793;52.238;13.438;2024-03-06T01:15:22;-2.10;99.90
11474;DHT22;5793;52.238;13.438;2024-03-06T01:17:50;-2.10;99.90
11474;DHT22;5793;52.238;13.438;2024-03-06T01:20:18;-2.10;99.90
11474;DHT22;5793;52.238;13.438;2024-03-06T01:22:46;-2.00;99.90
11474;DHT22;5793;52.238;13.438;2024-03-06T01:25:14;-2.10;99.90
11474;DHT22;5793;52.238;13.438;2024-03-06T01:27:42;-2.10;99.90
11474;DHT22;5793;52.238;13.438;2024-03-06T01:30:10;-2.20;99.90
11474;DHT22;5793;52.238;13.438;2024-03-06T01:32:39;-2.20;99.90
11474;DHT22;5793;52.238;13.438;2024-03-06T01:35:07;-2.10;99.90
11474;DHT22;5793;52.238;13.438;2024-03-06T01:37:35;-2.20;99.90
11474;DHT22;5793;52.238;13.438;2024-03-06T01:40:04;-2.30;99.90
11474;DHT22;5793;52.238;13.438;2024-03-06T01:42:33;-2.30;99.90
11474;DHT22;5793;52.238;13.438;2024-03-06T01:45:02;-2.30;99.90
11474;DHT22;5793;52.238;13.438;2024-03-06T01:47:29;-2.30;99.90
11474;DHT22;5793;52.238;13.438;2024-03-06T01:49:59;-2.30;99.90
11474;DHT22;5793;52.238;13.438;2024-03-06T01:52:28;-2.20;99.90
11474;DHT22;5793;52.238;13.438;2024-03-06T01:54:57;-2.30;99.90
11474;DHT22;5793;52.238;13.438;2024-03-06T01:57:25;-2.40;99.90
11474;DHT22;5793;52.238;13.438;2024-03-06T01:59:53;-2.40;99.90
11474;DHT22;5793;52.238;13.438;2024-03-06T02:02:21;-2.40;99.90
11474;DHT22;5793;52.238;13.438;2024-03-06T02:04:49;-2.50;99.90
11474;DHT22;5793;52.238;13.438;2024-03-06T02:07:19;-2.40;99.90
11474;DHT22;5793;52.238;13.438;2024-03-06T02:09:48;-2.40;99.90
11474;DHT22;5793;52.238;13.438;2024-03-06T02:12:16;-2.40;99.90
11474;DHT22;5793;52.238;13.438;2024-03-06T02:14:45;-2.40;99.90
11474;DHT22;5793;52.238;13.438;2024-03-06T02:17:12;-2.40;99.90
11474;DHT22;5793;52.238;13.438;2024-03-06T02:19:41;-2.30;99.90
11474;DHT22;5793;52.238;13.438;2024-03-06T02:22:11;-2.30;99.90
11474;DHT22;5793;52.238;13.438;2024-03-06T02:24:44;-2.30;99.90
11474;DHT22;5793;52.238;13.438;2024-03-06T02:27:12;-2.30;99.90
11474;DHT22;5793;52.238;13.438;2024-03-06T02:29:40;-2.40;99.90
11474;DHT22;5793;52.238;13.438;2024-03-06T02:32:08;-2.30;99.90
11474;DHT22;5793;52.238;13.438;2024-03-06T02:34:36;-2.40;99.90
11474;DHT22;5793;52.238;13.438;2024-03-06T02:37:03;-2.40;99.90
11474;DHT22;5793;52.238;13.438;2024-03-06T02:39:33;-2.50;99.90
11474;DHT22;5793;52.238;13.438;2024-03-06T02:42:00;-2.40;99.90
11474;DHT22;5793;52.238;13.438;2024-03-06T02:44:29;-2.40;99.90
11474;DHT22;5793;52.238;13.438;2024-03-06T02:46:57;-2.30;99.90
11474;DHT22;5793;52.238;13.438;2024-03-06T02:49:25;-2.40;99.90
11474;DHT22;5793;52.238;13.438;2024-03-06T02:51:53;-2.50;99.90
11474;DHT22;5793;52.238;13.438;2024-03-06T02:54:21;-2.60;99.90
11474;DHT22;5793;52.238;13.438;2024-03-06T02:56:52;-2.70;99.90
11474;DHT22;5793;52.238;13.438;2024-03-06T02:59:20;-2.70;99.90
11474;DHT22;5793;52.238;13.438;2024-03-06T03:01:48;-2.60;99.90
11474;DHT22;5793;52.238;13.438;2024-03-06T03:04:15;-2.60;99.90
11474;DHT22;5793;52.238;13.438;2024-03-06T03:06:43;-2.40;99.90
11474;DHT22;5793;52.238;13.438;2024-03-06T03:09:11;-2.40;99.90
11474;DHT22;5793;52.238;13.438;2024-03-06T03:11:42;-2.40;99.90
11474;DHT22;5793;52.238;13.438;2024-03-06T03:14:11;-2.50;99.90
11474;DHT22;5793;52.238;13.438;2024-03-06T03:16:39;-2.50;99.90
11474;DHT22;5793;52.238;13.438;2024-03-06T03:19:08;-2.60;99.90
11474;DHT22;5793;52.238;13.438;2024-03-06T03:21:36;-2.60;99.90
11474;DHT22;5793;52.238;13.438;2024-03-06T03:24:05;-2.60;99.90
11474;DHT22;5793;52.238;13.438;2024-03-06T03:26:32;-2.50;99.90
11474;DHT22;5793;52.238;13.438;2024-03-06T03:29:00;-2.50;99.90
11474;DHT22;5793;52.238;13.438;2024-03-06T03:31:29;-2.50;99.90
11474;DHT22;5793;52.238;13.438;2024-03-06T03:33:57;-2.60;99.90
11474;DHT22;5793;52.238;13.438;2024-03-06T03:36:25;-2.50;99.90
11474;DHT22;5793;52.238;13.438;2024-03-06T03:38:53;-2.50;99.90
11474;DHT22;5793;52.238;13.438;2024-03-06T03:41:21;-2.50;99.90
11474;DHT22;5793;52.238;13.438;2024-03-06T03:43:48;-2.50;99.90
11474;DHT22;5793;52.238;13.438;2024-03-06T03:46:16;-2.50;99.90
11474;DHT22;5793;52.238;13.438;2024-03-06T03:48:45;-2.60;99.90
11474;DHT22;5793;52.238;13.438;2024-03-06T03:51:13;-2.60;99.90
11474;DHT22;5793;52.238;13.438;2024-03-06T03:53:41;-2.60;99.90
11474;DHT22;5793;52.238;13.438;2024-03-06T03:56:08;-2.50;99.90
11474;DHT22;5793;52.238;13.438;2024-03-06T03:58:37;-2.60;99.90
11474;DHT22;5793;52.238;13.438;2024-03-06T04:01:05;-2.70;99.90
11474;DHT22;5793;52.238;13.438;2024-03-06T04:03:33;-2.70;99.90
11474;DHT22;5793;52.238;13.438;2024-03-06T04:06:03;-2.70;99.90
11474;DHT22;5793;52.238;13.438;2024-03-06T04:08:30;-2.60;99.90
11474;DHT22;5793;52.238;13.438;2024-03-06T04:10:58;-2.70;99.90
11474;DHT22;5793;52.238;13.438;2024-03-06T04:13:26;-2.70;99.90
11474;DHT22;5793;52.238;13.438;2024-03-06T04:15:54;-2.60;99.90
11474;DHT22;5793;52.238;13.438;2024-03-06T04:18:22;-2.40;99.90
11474;DHT22;5793;52.238;13.438;2024-03-06T04:20:49;-2.40;99.90
11474;DHT22;5793;52.238;13.438;2024-03-06T04:23:19;-2.40;99.90
11474;DHT22;5793;52.238;13.438;2024-03-06T04:25:46;-2.50;99.90
11474;DHT22;5793;52.238;13.438;2024-03-06T04:28:14;-2.60;99.90
11474;DHT22;5793;52.238;13.438;2024-03-06T04:30:42;-2.70;99.90
11474;DHT22;5793;52.238;13.438;2024-03-06T04:33:10;-2.70;99.90
11474;DHT22;5793;52.238;13.438;2024-03-06T04:35:40;-2.60;99.90
11474;DHT22;5793;52.238;13.438;2024-03-06T04:38:08;-2.50;99.90
11474;DHT22;5793;52.238;13.438;2024-03-06T04:40:37;-2.50;99.90
11474;DHT22;5793;52.238;13.438;2024-03-06T04:43:06;-2.50;99.90
11474;DHT22;5793;52.238;13.438;2024-03-06T04:45:34;-2.60;99.90
11474;DHT22;5793;52.238;13.438;2024-03-06T04:48:02;-2.60;99.90
11474;DHT22;5793;52.238;13.438;2024-03-06T04:50:29;-2.60;99.90
11474;DHT22;5793;52.238;13.438;2024-03-06T04:52:57;-2.60;99.90
11474;DHT22;5793;52.238;13.438;2024-03-06T04:55:25;-2.60;99.90
11474;DHT22;5793;52.238;13.438;2024-03-06T04:57:54;-2.70;99.90
11474;DHT22;5793;52.238;13.438;2024-03-06T05:00:22;-2.80;99.90
11474;DHT22;5793;52.238;13.438;2024-03-06T05:02:50;-2.90;99.90
11474;DHT22;5793;52.238;13.438;2024-03-06T05:05:36;-2.80;99.90
11474;DHT22;5793;52.238;13.438;2024-03-06T05:08:22;-2.80;99.90
11474;DHT22;5793;52.238;13.438;2024-03-06T05:11:08;-2.70;99.90
11474;DHT22;5793;52.238;13.438;2024-03-06T05:13:54;-2.80;99.90
11474;DHT22;5793;52.238;13.438;2024-03-06T05:16:39;-2.80;99.90
11474;DHT22;5793;52.238;13.438;2024-03-06T05:19:25;-2.90;99.90
11474;DHT22;5793;52.238;13.438;2024-03-06T05:22:16;-2.90;99.90
11474;DHT22;5793;52.238;13.438;2024-03-06T05:25:02;-3.00;99.90
11474;DHT22;5793;52.238;13.438;2024-03-06T05:27:48;-3.00;99.90
11474;DHT22;5793;52.238;13.438;2024-03-06T05:30:34;-3.10;99.90
11474;DHT22;5793;52.238;13.438;2024-03-06T05:33:20;-3.20;99.90
11474;DHT22;5793;52.238;13.438;2024-03-06T05:36:06;-3.20;99.90
11474;DHT22;5793;52.238;13.438;2024-03-06T05:38:51;-3.20;99.90
11474;DHT22;5793;52.238;13.438;2024-03-06T05:41:36;-3.10;99.90
11474;DHT22;5793;52.238;13.438;2024-03-06T05:44:21;-3.10;99.90
11474;DHT22;5793;52.238;13.438;2024-03-06T05:47:07;-3.10;99.90
11474;DHT22;5793;52.238;13.438;2024-03-06T05:49:53;-3.10;99.90
11474;DHT22;5793;52.238;13.438;2024-03-06T05:52:38;-3.20;99.90
11474;DHT22;5793;52.238;13.438;2024-03-06T05:55:24;-3.20;99.90
11474;DHT22;5793;52.238;13.438;2024-03-06T05:58:09;-3.30;99.90
11474;DHT22;5793;52.238;13.438;2024-03-06T06:00:41;-3.20;99.90
11474;DHT22;5793;52.238;13.438;2024-03-06T06:03:11;-3.20;99.90
11474;DHT22;5793;52.238;13.438;2024-03-06T06:05:39;-3.20;99.90
11474;DHT22;5793;52.238;13.438;2024-03-06T06:08:07;-3.00;99.90
11474;DHT22;5793;52.238;13.438;2024-03-06T06:10:36;-3.00;99.90
11474;DHT22;5793;52.238;13.438;2024-03-06T06:13:04;-2.90;99.90
11474;DHT22;5793;52.238;13.438;2024-03-06T06:15:32;-2.80;99.90
11474;DHT22;5793;52.238;13.438;2024-03-06T06:18:00;-2.80;99.90
11474;DHT22;5793;52.238;13.438;2024-03-06T06:20:29;-2.60;99.90
11474;DHT22;5793;52.238;13.438;2024-03-06T06:22:57;-2.50;99.90
11474;DHT22;5793;52.238;13.438;2024-03-06T06:25:25;-2.50;99.90
11474;DHT22;5793;52.238;13.438;2024-03-06T06:27:53;-2.50;99.90
11474;DHT22;5793;52.238;13.438;2024-03-06T06:30:20;-2.40;99.90
11474;DHT22;5793;52.238;13.438;2024-03-06T06:32:48;-2.40;99.90
11474;DHT22;5793;52.238;13.438;2024-03-06T06:35:16;-2.30;99.90
11474;DHT22;5793;52.238;13.438;2024-03-06T06:37:45;-2.20;99.90
11474;DHT22;5793;52.238;13.438;2024-03-06T06:40:13;-2.10;99.90
11474;DHT22;5793;52.238;13.438;2024-03-06T06:42:44;-2.00;99.90
11474;DHT22;5793;52.238;13.438;2024-03-06T06:45:14;-2.00;99.90
11474;DHT22;5793;52.238;13.438;2024-03-06T06:47:41;-1.90;99.90
11474;DHT22;5793;52.238;13.438;2024-03-06T06:50:10;-1.90;99.90
11474;DHT22;5793;52.238;13.438;2024-03-06T06:52:38;-1.80;99.90
11474;DHT22;5793;52.238;13.438;2024-03-06T06:55:08;-1.60;99.90
11474;DHT22;5793;52.238;13.438;2024-03-06T06:57:38;-1.40;99.90
11474;DHT22;5793;52.238;13.438;2024-03-06T07:00:07;-1.20;99.90
11474;DHT22;5793;52.238;13.438;2024-03-06T07:02:38;-0.90;99.90
11474;DHT22;5793;52.238;13.438;2024-03-06T07:05:08;-0.80;99.90
11474;DHT22;5793;52.238;13.438;2024-03-06T07:07:37;-0.50;99.90
11474;DHT22;5793;52.238;13.438;2024-03-06T07:10:07;-0.30;99.90
11474;DHT22;5793;52.238;13.438;2024-03-06T07:12:35;-0.20;99.90
11474;DHT22;5793;52.238;13.438;2024-03-06T07:15:04;-0.10;99.90
11474;DHT22;5793;52.238;13.438;2024-03-06T07:17:33;0.00;99.90
11474;DHT22;5793;52.238;13.438;2024-03-06T07:20:01;0.10;99.90
11474;DHT22;5793;52.238;13.438;2024-03-06T07:22:32;0.10;99.90
11474;DHT22;5793;52.238;13.438;2024-03-06T07:25:00;0.20;99.90
11474;DHT22;5793;52.238;13.438;2024-03-06T07:27:30;0.30;99.90
11474;DHT22;5793;52.238;13.438;2024-03-06T07:29:58;0.40;99.90
11474;DHT22;5793;52.238;13.438;2024-03-06T07:32:26;0.60;99.90
11474;DHT22;5793;52.238;13.438;2024-03-06T07:34:54;0.60;99.90
11474;DHT22;5793;52.238;13.438;2024-03-06T07:37:22;0.70;99.90
11474;DHT22;5793;52.238;13.438;2024-03-06T07:39:49;0.90;99.90
11474;DHT22;5793;52.238;13.438;2024-03-06T07:42:19;0.80;99.90
11474;DHT22;5793;52.238;13.438;2024-03-06T07:44:49;0.70;99.90
11474;DHT22;5793;52.238;13.438;2024-03-06T07:47:17;0.60;99.90
11474;DHT22;5793;52.238;13.438;2024-03-06T07:49:45;0.60;99.90
11474;DHT22;5793;52.238;13.438;2024-03-06T07:52:13;0.60;99.90
11474;DHT22;5793;52.238;13.438;2024-03-06T07:54:41;0.70;99.90
11474;DHT22;5793;52.238;13.438;2024-03-06T07:57:09;0.80;99.90
11474;DHT22;5793;52.238;13.438;2024-03-06T07:59:37;0.90;99.90
11474;DHT22;5793;52.238;13.438;2024-03-06T08:02:06;1.10;99.90
11474;DHT22;5793;52.238;13.438;2024-03-06T08:04:34;1.10;99.90
11474;DHT22;5793;52.238;13.438;2024-03-06T08:07:02;0.90;99.90
11474;DHT22;5793;52.238;13.438;2024-03-06T08:09:30;0.80;99.90
11474;DHT22;5793;52.238;13.438;2024-03-06T08:11:58;0.90;99.90
11474;DHT22;5793;52.238;13.438;2024-03-06T08:14:27;1.00;99.90
11474;DHT22;5793;52.238;13.438;2024-03-06T08:16:55;1.20;99.90
11474;DHT22;5793;52.238;13.438;2024-03-06T08:19:25;1.40;99.90
11474;DHT22;5793;52.238;13.438;2024-03-06T08:21:53;1.50;99.90
11474;DHT22;5793;52.238;13.438;2024-03-06T08:24:21;1.70;99.90
11474;DHT22;5793;52.238;13.438;2024-03-06T08:26:48;1.90;99.90
11474;DHT22;5793;52.238;13.438;2024-03-06T08:29:16;2.20;99.90
11474;DHT22;5793;52.238;13.438;2024-03-06T08:31:44;2.30;99.90
11474;DHT22;5793;52.238;13.438;2024-03-06T08:34:12;2.40;99.90
11474;DHT22;5793;52.238;13.438;2024-03-06T08:36:41;2.30;99.90
11474;DHT22;5793;52.238;13.438;2024-03-06T08:39:08;2.50;99.90
11474;DHT22;5793;52.238;13.438;2024-03-06T08:41:41;2.40;99.90
11474;DHT22;5793;52.238;13.438;2024-03-06T08:44:09;2.40;99.90
11474;DHT22;5793;52.238;13.438;2024-03-06T08:46:37;2.40;99.90
11474;DHT22;5793;52.238;13.438;2024-03-06T08:49:05;2.60;99.90
11474;DHT22;5793;52.238;13.438;2024-03-06T08:51:36;2.90;99.90
11474;DHT22;5793;52.238;13.438;2024-03-06T08:54:05;3.00;99.90
11474;DHT22;5793;52.238;13.438;2024-03-06T08:56:36;2.90;99.90
11474;DHT22;5793;52.238;13.438;2024-03-06T08:59:04;3.10;99.90
11474;DHT22;5793;52.238;13.438;2024-03-06T09:01:32;3.10;99.90
11474;DHT22;5793;52.238;13.438;2024-03-06T09:03:59;3.00;99.90
11474;DHT22;5793;52.238;13.438;2024-03-06T09:06:27;3.10;99.90
11474;DHT22;5793;52.238;13.438;2024-03-06T09:08:56;3.40;99.90
11474;DHT22;5793;52.238;13.438;2024-03-06T09:11:25;3.60;99.90
11474;DHT22;5793;52.238;13.438;2024-03-06T09:13:53;4.00;99.90
11474;DHT22;5793;52.238;13.438;2024-03-06T09:16:20;4.30;99.90
11474;DHT22;5793;52.238;13.438;2024-03-06T09:18:48;4.30;99.90
11474;DHT22;5793;52.238;13.438;2024-03-06T09:21:16;4.40;99.90
11474;DHT22;5793;52.238;13.438;2024-03-06T09:23:44;4.60;99.90
11474;DHT22;5793;52.238;13.438;2024-03-06T09:26:12;4.60;99.90
11474;DHT22;5793;52.238;13.438;2024-03-06T09:28:41;4.50;99.90
11474;DHT22;5793;52.238;13.438;2024-03-06T09:31:08;4.80;99.90
11474;DHT22;5793;52.238;13.438;2024-03-06T09:33:38;4.50;99.90
11474;DHT22;5793;52.238;13.438;2024-03-06T09:36:07;4.60;99.90
11474;DHT22;5793;52.238;13.438;2024-03-06T09:38:40;4.70;99.90
11474;DHT22;5793;52.238;13.438;2024-03-06T09:41:08;4.80;99.90
11474;DHT22;5793;52.238;13.438;2024-03-06T09:43:36;4.90;99.90
11474;DHT22;5793;52.238;13.438;2024-03-06T09:46:06;5.00;99.90
11474;DHT22;5793;52.238;13.438;2024-03-06T09:48:33;4.70;99.90
11474;DHT22;5793;52.238;13.438;2024-03-06T09:51:06;5.20;99.90
11474;DHT22;5793;52.238;13.438;2024-03-06T09:53:34;5.90;99.90
11474;DHT22;5793;52.238;13.438;2024-03-06T09:56:02;5.70;99.90
11474;DHT22;5793;52.238;13.438;2024-03-06T09:58:30;5.80;99.90
11474;DHT22;5793;52.238;13.438;2024-03-06T10:00:58;5.80;99.90
11474;DHT22;5793;52.238;13.438;2024-03-06T10:03:28;5.70;99.90
11474;DHT22;5793;52.238;13.438;2024-03-06T10:05:56;5.80;99.90
11474;DHT22;5793;52.238;13.438;2024-03-06T10:08:28;6.90;99.90
11474;DHT22;5793;52.238;13.438;2024-03-06T10:10:56;7.30;99.90
11474;DHT22;5793;52.238;13.438;2024-03-06T10:13:25;8.40;99.90
11474;DHT22;5793;52.238;13.438;2024-03-06T10:15:57;10.40;99.90
11474;DHT22;5793;52.238;13.438;2024-03-06T10:18:27;9.90;99.90
11474;DHT22;5793;52.238;13.438;2024-03-06T10:20:56;9.80;99.90
11474;DHT22;5793;52.238;13.438;2024-03-06T10:23:24;9.40;99.90
11474;DHT22;5793;52.238;13.438;2024-03-06T10:25:55;9.60;99.90
11474;DHT22;5793;52.238;13.438;2024-03-06T10:28:23;10.60;99.90
11474;DHT22;5793;52.238;13.438;2024-03-06T10:30:51;11.90;99.90
11474;DHT22;5793;52.238;13.438;2024-03-06T10:33:31;13.10;99.90
11474;DHT22;5793;52.238;13.438;2024-03-06T10:36:00;13.10;99.90
11474;DHT22;5793;52.238;13.438;2024-03-06T10:38:35;12.80;99.90
11474;DHT22;5793;52.238;13.438;2024-03-06T10:41:05;14.40;99.90
11474;DHT22;5793;52.238;13.438;2024-03-06T10:43:36;15.00;99.90
11474;DHT22;5793;52.238;13.438;2024-03-06T10:46:06;12.50;99.90
11474;DHT22;5793;52.238;13.438;2024-03-06T10:48:39;13.00;99.90
11474;DHT22;5793;52.238;13.438;2024-03-06T10:51:10;11.00;99.90
11474;DHT22;5793;52.238;13.438;2024-03-06T10:53:41;10.70;99.90
11474;DHT22;5793;52.238;13.438;2024-03-06T10:56:10;10.80;99.90
11474;DHT22;5793;52.238;13.438;2024-03-06T10:58:39;11.30;99.90
11474;DHT22;5793;52.238;13.438;2024-03-06T11:01:08;11.90;99.90
11474;DHT22;5793;52.238;13.438;2024-03-06T11:03:37;13.50;99.90
11474;DHT22;5793;52.238;13.438;2024-03-06T11:06:06;15.10;99.90
11474;DHT22;5793;52.238;13.438;2024-03-06T11:08:35;17.20;98.40
11474;DHT22;5793;52.238;13.438;2024-03-06T11:11:19;19.70;89.40
11474;DHT22;5793;52.238;13.438;2024-03-06T11:13:48;21.10;72.40
11474;DHT22;5793;52.238;13.438;2024-03-06T11:16:16;20.90;69.10
11474;DHT22;5793;52.238;13.438;2024-03-06T11:18:44;21.00;68.30
11474;DHT22;5793;52.238;13.438;2024-03-06T11:21:30;20.20;69.50
11474;DHT22;5793;52.238;13.438;2024-03-06T11:24:19;19.10;68.40
11474;DHT22;5793;52.238;13.438;2024-03-06T11:26:55;17.10;75.70
11474;DHT22;5793;52.238;13.438;2024-03-06T11:29:28;17.50;72.50
11474;DHT22;5793;52.238;13.438;2024-03-06T11:32:03;18.20;71.30
11474;DHT22;5793;52.238;13.438;2024-03-06T11:34:35;17.60;72.20
11474;DHT22;5793;52.238;13.438;2024-03-06T11:37:07;16.40;74.70
11474;DHT22;5793;52.238;13.438;2024-03-06T11:39:39;15.10;79.30
11474;DHT22;5793;52.238;13.438;2024-03-06T11:42:08;14.30;84.50
11474;DHT22;5793;52.238;13.438;2024-03-06T11:44:36;14.50;88.00
11474;DHT22;5793;52.238;13.438;2024-03-06T11:47:06;14.70;90.70
11474;DHT22;5793;52.238;13.438;2024-03-06T11:49:36;14.30;90.40
11474;DHT22;5793;52.238;13.438;2024-03-06T11:52:06;12.90;92.60
11474;DHT22;5793;52.238;13.438;2024-03-06T11:54:35;11.70;97.30
11474;DHT22;5793;52.238;13.438;2024-03-06T11:57:04;10.60;99.90
11474;DHT22;5793;52.238;13.438;2024-03-06T11:59:34;9.80;99.90
11474;DHT22;5793;52.238;13.438;2024-03-06T12:02:04;9.70;99.90
11474;DHT22;5793;52.238;13.438;2024-03-06T12:04:34;9.90;99.90
11474;DHT22;5793;52.238;13.438;2024-03-06T12:07:04;10.20;99.90
11474;DHT22;5793;52.238;13.438;2024-03-06T12:09:34;10.50;99.90
11474;DHT22;5793;52.238;13.438;2024-03-06T12:12:09;10.80;99.90
11474;DHT22;5793;52.238;13.438;2024-03-06T12:14:39;10.80;99.90
11474;DHT22;5793;52.238;13.438;2024-03-06T12:17:11;10.70;99.90
11474;DHT22;5793;52.238;13.438;2024-03-06T12:19:42;10.60;99.90
11474;DHT22;5793;52.238;13.438;2024-03-06T12:22:11;10.40;99.90
11474;DHT22;5793;52.238;13.438;2024-03-06T12:24:39;10.10;99.90
11474;DHT22;5793;52.238;13.438;2024-03-06T12:27:08;9.60;99.90
11474;DHT22;5793;52.238;13.438;2024-03-06T12:29:36;9.70;99.90
11474;DHT22;5793;52.238;13.438;2024-03-06T12:32:15;9.60;99.90
11474;DHT22;5793;52.238;13.438;2024-03-06T12:34:55;10.00;99.90
11474;DHT22;5793;52.238;13.438;2024-03-06T12:37:29;9.70;99.90
11474;DHT22;5793;52.238;13.438;2024-03-06T12:40:02;9.40;99.90
11474;DHT22;5793;52.238;13.438;2024-03-06T12:42:32;9.70;99.90
11474;DHT22;5793;52.238;13.438;2024-03-06T12:45:00;9.80;99.90
11474;DHT22;5793;52.238;13.438;2024-03-06T12:47:30;9.90;99.90
11474;DHT22;5793;52.238;13.438;2024-03-06T12:49:58;9.70;99.90
11474;DHT22;5793;52.238;13.438;2024-03-06T12:52:26;9.70;99.90
11474;DHT22;5793;52.238;13.438;2024-03-06T12:54:54;9.50;99.90
11474;DHT22;5793;52.238;13.438;2024-03-06T12:57:21;9.40;99.90
11474;DHT22;5793;52.238;13.438;2024-03-06T12:59:50;9.60;99.90
11474;DHT22;5793;52.238;13.438;2024-03-06T13:02:18;9.90;99.90
11474;DHT22;5793;52.238;13.438;2024-03-06T13:04:46;10.00;99.90
11474;DHT22;5793;52.238;13.438;2024-03-06T13:07:14;10.10;99.90
11474;DHT22;5793;52.238;13.438;2024-03-06T13:09:42;10.00;99.90
11474;DHT22;5793;52.238;13.438;2024-03-06T13:12:10;9.90;99.90
11474;DHT22;5793;52.238;13.438;2024-03-06T13:14:38;9.90;99.90
11474;DHT22;5793;52.238;13.438;2024-03-06T13:17:07;9.50;99.90
11474;DHT22;5793;52.238;13.438;2024-03-06T13:19:35;9.30;99.90
11474;DHT22;5793;52.238;13.438;2024-03-06T13:22:03;9.30;99.90
11474;DHT22;5793;52.238;13.438;2024-03-06T13:24:33;9.10;99.90
11474;DHT22;5793;52.238;13.438;2024-03-06T13:27:03;9.00;99.90
11474;DHT22;5793;52.238;13.438;2024-03-06T13:29:31;8.70;99.90
11474;DHT22;5793;52.238;13.438;2024-03-06T13:31:59;8.90;99.90
11474;DHT22;5793;52.238;13.438;2024-03-06T13:34:28;9.00;99.90
11474;DHT22;5793;52.238;13.438;2024-03-06T13:36:58;9.10;99.90
11474;DHT22;5793;52.238;13.438;2024-03-06T13:39:26;9.20;99.90
11474;DHT22;5793;52.238;13.438;2024-03-06T13:41:54;9.10;99.90
11474;DHT22;5793;52.238;13.438;2024-03-06T13:44:21;9.10;99.90
11474;DHT22;5793;52.238;13.438;2024-03-06T13:46:49;9.20;99.90
11474;DHT22;5793;52.238;13.438;2024-03-06T13:49:37;9.30;99.90
11474;DHT22;5793;52.238;13.438;2024-03-06T13:52:06;9.50;99.90
11474;DHT22;5793;52.238;13.438;2024-03-06T13:54:37;9.60;99.90
11474;DHT22;5793;52.238;13.438;2024-03-06T13:57:06;9.40;99.90
11474;DHT22;5793;52.238;13.438;2024-03-06T13:59:34;9.20;99.90
11474;DHT22;5793;52.238;13.438;2024-03-06T14:02:03;8.90;99.90
11474;DHT22;5793;52.238;13.438;2024-03-06T14:04:30;8.70;99.90
11474;DHT22;5793;52.238;13.438;2024-03-06T14:07:00;8.50;99.90
11474;DHT22;5793;52.238;13.438;2024-03-06T14:09:28;8.40;99.90
11474;DHT22;5793;52.238;13.438;2024-03-06T14:11:55;8.50;99.90
11474;DHT22;5793;52.238;13.438;2024-03-06T14:14:24;8.50;99.90
11474;DHT22;5793;52.238;13.438;2024-03-06T14:16:52;8.40;99.90
11474;DHT22;5793;52.238;13.438;2024-03-06T14:19:19;8.30;99.90
11474;DHT22;5793;52.238;13.438;2024-03-06T14:21:48;8.30;99.90
11474;DHT22;5793;52.238;13.438;2024-03-06T14:24:17;8.10;99.90
11474;DHT22;5793;52.238;13.438;2024-03-06T14:26:47;8.00;99.90
11474;DHT22;5793;52.238;13.438;2024-03-06T14:29:15;8.00;99.90
11474;DHT22;5793;52.238;13.438;2024-03-06T14:31:43;7.80;99.90
11474;DHT22;5793;52.238;13.438;2024-03-06T14:34:11;7.80;99.90
11474;DHT22;5793;52.238;13.438;2024-03-06T14:36:39;7.70;99.90
11474;DHT22;5793;52.238;13.438;2024-03-06T14:39:08;7.70;99.90
11474;DHT22;5793;52.238;13.438;2024-03-06T14:41:38;7.50;99.90
11474;DHT22;5793;52.238;13.438;2024-03-06T14:44:09;7.50;99.90
11474;DHT22;5793;52.238;13.438;2024-03-06T14:46:37;7.50;99.90
11474;DHT22;5793;52.238;13.438;2024-03-06T14:49:04;7.60;99.90
11474;DHT22;5793;52.238;13.438;2024-03-06T14:51:32;7.60;99.90
11474;DHT22;5793;52.238;13.438;2024-03-06T14:54:00;7.80;99.90
11474;DHT22;5793;52.238;13.438;2024-03-06T14:56:27;7.80;99.90
11474;DHT22;5793;52.238;13.438;2024-03-06T14:58:56;7.90;99.90
11474;DHT22;5793;52.238;13.438;2024-03-06T15:01:24;8.00;99.90
11474;DHT22;5793;52.238;13.438;2024-03-06T15:03:53;8.10;99.90
11474;DHT22;5793;52.238;13.438;2024-03-06T15:06:21;8.20;99.90
11474;DHT22;5793;52.238;13.438;2024-03-06T15:08:49;8.20;99.90
11474;DHT22;5793;52.238;13.438;2024-03-06T15:11:17;8.20;99.90
11474;DHT22;5793;52.238;13.438;2024-03-06T15:13:45;8.10;99.90
11474;DHT22;5793;52.238;13.438;2024-03-06T15:16:14;8.10;99.90
11474;DHT22;5793;52.238;13.438;2024-03-06T15:18:42;8.10;99.90
11474;DHT22;5793;52.238;13.438;2024-03-06T15:21:11;8.10;99.90
11474;DHT22;5793;52.238;13.438;2024-03-06T15:23:39;8.20;99.90
11474;DHT22;5793;52.238;13.438;2024-03-06T15:26:06;8.20;99.90
11474;DHT22;5793;52.238;13.438;2024-03-06T15:28:34;8.10;99.90
11474;DHT22;5793;52.238;13.438;2024-03-06T15:31:02;8.10;99.90
11474;DHT22;5793;52.238;13.438;2024-03-06T15:33:32;8.10;99.90
11474;DHT22;5793;52.238;13.438;2024-03-06T15:36:00;8.20;99.90
11474;DHT22;5793;52.238;13.438;2024-03-06T15:38:28;8.00;99.90
11474;DHT22;5793;52.238;13.438;2024-03-06T15:40:56;8.10;99.90
11474;DHT22;5793;52.238;13.438;2024-03-06T15:43:23;7.90;99.90
11474;DHT22;5793;52.238;13.438;2024-03-06T15:45:51;8.00;99.90
11474;DHT22;5793;52.238;13.438;2024-03-06T15:48:20;7.90;99.90
11474;DHT22;5793;52.238;13.438;2024-03-06T15:50:52;7.90;99.90
11474;DHT22;5793;52.238;13.438;2024-03-06T15:53:20;7.90;99.90